Cascade, MT (59421)

5:33 AM MST on February 08, 2016 (GMT -0700)
Cascade Public Schools MT | | Change Station
CLOSE
Current Station
Personal Weather Station
Location: Cascade, MT
Elevation: 3435 ft
Nearby Weather Stations

Elev 3435 ft 47.27 °N, 111.71 °W | Updated 7 seconds ago

Clear
Clear
43.0 °F
Feels Like 40 °F
N
5.0
Wind Variable Wind from South
Gusts 8.0 mph

Today
High -- | Low -- °F
--% Chance of Precip.
Yesterday
High -- | Low -- °F
Precip. -- in
Pressure 30.50 in
Visibility 10.0 miles
Clouds Clear
Windchill 40 °F
Dew Point 24 °F
Humidity 45%
Rainfall 0.00 in
Snow Depth Not available.
7:43 AM 5:39 PM
Waning Crescent, 0% visible
METAR KGTF 081153Z 23013KT 10SM CLR 03/M06 A3041 RMK AO2 SLP327 T00281056 10028 21011 53003
Pressure 30.50 in
Visibility 10.0 miles
Clouds Clear
Windchill 40 °F
Dew Point 24 °F
Humidity 45%
Rainfall 0.00 in
Snow Depth Not available.
7:43 AM 5:39 PM
Waning Crescent, 0% visible
METAR KGTF 081153Z 23013KT 10SM CLR 03/M06 A3041 RMK AO2 SLP327 T00281056 10028 21011 53003

10-Day Weather Forecast

Almanac

Astronomy

Feb. 08, 2016 Rise Set
Actual Time
Civil Twilight
Nautical Twilight
Astronomical Twilight
Moon
Length of Visible Light
Length of Day
Tomorrow will be .
, % of the Moon is Illuminated

Today's Extremes

State Highs State Lows

Community

WunderPhotos

Upload Photos

1,891,426 photos uploaded!

WunderBlog® & News

Nearby

Air Quality

  Air Quality AQ Index Pollutant
Not available.

Snow Depth

Station Depth Elevation

Earthquake Activity

City Distance Mag. Time & Date
Minimum magnitude displayed is 2.5.

Coastal Water Temperatures

Place Temperature

Stations

Nearby Weather Stations

Station Location Temp. Windchill Dew Point Humidity Wind Precip. Elev Updated Type
                   

Watches & Warnings

There are currently no watches in effect.